Latest METARs, TAFs and NOTAMs for MYNN


---------------------------------------------------------------------------
	(OBSERVATIONS)
MYNN 212200Z 05014KT 020V080 9999 SCT020 26/18 A3030 RMK PKWND
    19KT=
MYNN 212100Z 05012KT 9999 SCT020 28/19 A3030 RMK PKWND 19KT=
MYNN 212000Z 06013KT 9999 SCT020 30/21 A3031 RMK PKWNDS 19KT=
---------------------------------------------------------------------------
	(TERMINAL AREA FORECAST)
MYNN 212130Z 2200/2224 08010G20KT 9999 SCT020=
---------------------------------------------------------------------------
	(NOTAMS)


MYNN A0012/18 PAPI LGTS RWY 10/28 U/S. 16 JAN 21:49 2018 UNTIL
    30 APR 23:59 2018. CREATED: 16 JAN 21:49 2018

MYNN A0027/18 CHECKLIST (A) SERIES YEAR=2010 0277 YEAR=2013 0068
    0069 0070 YEAR=2015 0108 YEAR=2016 0266 0291 0316 YEAR=2017
    0226 0227 0259 0264 0265 0266 0267 0268 0269 0270 0271 0272
    0274 0275 0276 0277 0323 0324 YEAR=2018 0007 0010 0012 0025
    0026 LATEST PUBLICATIONS SUPPLEMENT 01/2O17 02/2017 AIP AMDT
    01/16 EFFECTIVE MAY 26, 2016 AIC 03/16. 31 JAN 20:00 2018
    UNTIL 28 FEB 23:59 2018. CREATED: 31 JAN 19:39 2018

MYNN A0044/18 TWY BRAVO1 (B1) CLSD DUE TO PAVEMENT CONCERNS.
    19 FEB 15:00 2018 UNTIL 29 JUN 20:00 2018. CREATED: 19 FEB
    14:35 2018

MYNN A0046/18 DANGER AREA (MY)D3002 ACTIVE. SFC - 1,000FT AMSL,
    DAILY 1230UTC - 0000UTC, 21 FEB 16:30 2018 UNTIL 22 FEB 00:00
    2018. CREATED: 21 FEB 16:35 2018

MYNN A0047/18 MEN AND EQPT ON SHOULDERS OF TWY INDIA (I) WILL
    REMAIM CLEAR AT ALL TIMES. 23 FEB 12:30 2018 UNTIL 23 FEB
    14:30 2018. CREATED: 21 FEB 20:41 2018

MYNN A0068/13 VOR Y RWY 14 FEEDER RTE FM MAJUR TO MUNIE NOT AVBL
    VOR Y RWY 14 FEEDER RTE FM MELON TO MUNIE NOT AVBL. SFC -
    UNL, 19 APR 19:55 2013 UNTIL PERM. CREATED: 19 APR 19:51
    2013

MYNN A0069/13 VOR Y RWY 09 FEEDER RTE FM MAJUR TO MUSSE NOT AVBL
    REMOVE PROCEDURE NOTE 'RADAR REQUIRED' FM APP CHART. SFC
    - UNL, 19 APR 19:55 2013 UNTIL PERM. CREATED: 19 APR 19:52
    2013

MYNN A0070/13 VOR Y RWY 32 FEEDER RTE FM PRUNE TO WELKS NOT AVBL
    REMOVE PROCEDURE NOTE 'RADAR REQUIRED' FM APP CHART. SFC
    - UNL, 19 APR 19:55 2013 UNTIL PERM. CREATED: 19 APR 19:54
    2013

MYNN A0227/17 REF THE BAHAMAS AIP GEN 3.3 AIR TRAFFIC SERVICES
    AERODROME FLIGHT INFORMATION SERVICE (AFIS) WILL BE DEPICTED
    AS AFIS/ADVISORY SERVICE (AERODROME FLIGHT INFORMATION SERVICE
    / ADVISORY SERVICE) CHANGES AND UPDATES TO BE MADE IN THE
    AIP. 19 SEP 21:00 2017 UNTIL PERM. CREATED: 20 SEP 13:33
    2017

MYNN A0316/16 WIE THE DEPARTMENT OF CIVIL AVIATION BANS ALL SAMSUNG
    GALAXY NOTE 7 PHONES FROM ACFT TRAVELLING IN THE BAHAMAS.
    DEVICES MAY NOT BE TRANSPORTED BY PASSENGERS OR CREW ON THEIR
    PERSON, IN CARRY-ON BAGGAGE, OR IN CHECKED BAGGAGE ON FLIGHTS
    TO, FROM, OR WITHIN THE COMMONWEALTH OF THE BAHAMAS AND CANNOT
    BE SHIPPED AS AIR CARGO. 20 OCT 15:30 2016 UNTIL PERM. CREATED:
    20 OCT 15:12 2016

MYNN B0004/18 CHECKLIST (B) SERIES YEAR=2016 0024 0028 YEAR=2017
    0049 0050 YEAR=2018 0002 LATEST PUBLICATIONS SUPPLEMENT 01/2O17
    02/2017 AIP AMDT 01/16 EFFECTIVE MAY 26, 2016 AIC 03/16.
    31 JAN 20:00 2018 UNTIL 28 FEB 23:59 2018. CREATED: 31 JAN
    19:39 2018

---------------------------------------------------------------------------